DucheSS Of Scandinavia — OUZI2 — position and weather

sailwx.info

Track history (hours):
 
Tides and Currents Weather Stations Pressure Air Temp Water Temp Dewpoint Dewpoint Depression Visibility Wind Speed Wind Dir Waves Ship Positions

DucheSS Of Scandinavia

Operator: DFDS A/S

Last reported at 2016-Jun-29 17:34 UTC. Time now 2016-Jun-29 18:21 UTC.
Position N 59°02' E 010°43'.

Length 134 m; draft 5.2 m.

Type: Passenger vessel. MMSI: 219002929.

Date/timePositionNaut miles runAvg speedWind from/ knotsBaromVisibWave heightAir tempDewpointWater temp
2016-Jun-29 17:34N 59°02' E 010°43'1514.8
2016-Jun-29 16:33N 58°56' E 011°10'3 3.0
2016-Jun-29 15:33N 58°56' E 011°04'1514.8
2016-Jun-29 14:33N 59°01' E 010°37'1312.9
2016-Jun-29 13:34N 59°06' E 010°14'2 1.7
2016-Jun-29 12:34N 59°08' E 010°14'9 9.2
2016-Jun-29 11:33N 59°01' E 010°25'1514.8
2016-Jun-29 10:34N 59°01' E 010°54'9 9.5
2016-Jun-29 09:34N 58°56' E 011°10'4 4.0
2016-Jun-29 08:34N 58°58' E 011°03'1515.1
2016-Jun-29 07:34N 59°01' E 010°34'1212.2
2016-Jun-29 06:32N 59°07' E 010°14'0 0.4
2016-Jun-29 05:33N 59°08' E 010°14'1 1.4
2016-Jun-29 04:31N 59°06' E 010°14'0 0.0
2016-Jun-29 03:32N 59°06' E 010°14'0 0.0
2016-Jun-29 02:33N 59°06' E 010°14'0 0.0
2016-Jun-29 01:33N 59°06' E 010°14'0 0.0
2016-Jun-29 00:28N 59°06' E 010°14'0 0.0
2016-Jun-28 23:23N 59°06' E 010°14'0 0.0
2016-Jun-28 22:32N 59°06' E 010°14'0 0.0
2016-Jun-28 21:30N 59°06' E 010°14'0 0.0
2016-Jun-28 20:31N 59°06' E 010°14'1 0.7
2016-Jun-28 19:33N 59°07' E 010°14'3 2.8
2016-Jun-28 18:34N 59°04' E 010°15'1414.0
2016-Jun-28 17:34N 59°01' E 010°42'1515.0
2016-Jun-28 16:34N 58°56' E 011°09'2 1.8
2016-Jun-28 15:33N 58°56' E 011°05'1515.4
2016-Jun-28 14:34N 59°01' E 010°37'1313.0
2016-Jun-28 13:33N 59°06' E 010°14'1 1.2
2016-Jun-28 12:33N 59°08' E 010°14'9 9.3
2016-Jun-28 11:34N 59°01' E 010°26'1514.8
2016-Jun-28 10:34N 59°01' E 010°54'9 9.3
2016-Jun-28 09:34N 58°56' E 011°10'6 5.8
2016-Jun-28 08:34N 58°59' E 011°01'1615.9
2016-Jun-28 07:34N 59°00' E 010°30'10 3.4
2016-Jun-28 04:33N 59°06' E 010°14'0 0.0
2016-Jun-28 03:28N 59°06' E 010°14'0 0.0
2016-Jun-28 02:31N 59°06' E 010°14'0 0.0
2016-Jun-28 01:32N 59°06' E 010°14'0 0.0
2016-Jun-28 00:33N 59°06' E 010°14'0 0.0
2016-Jun-27 23:33N 59°06' E 010°14'0 0.0
2016-Jun-27 22:31N 59°06' E 010°14'0 0.0
2016-Jun-27 21:32N 59°06' E 010°14'0 0.0
2016-Jun-27 20:32N 59°06' E 010°14'0 0.0
2016-Jun-27 19:34N 59°06' E 010°14'1 0.7
2016-Jun-27 18:34N 59°05' E 010°14'1313.1
2016-Jun-27 17:34N 59°01' E 010°38'1615.7
2016-Jun-27 16:34N 58°56' E 011°07'1 1.2
2016-Jun-27 15:34N 58°56' E 011°05'1514.5
2016-Jun-27 14:33N 59°01' E 010°38'1313.3
2016-Jun-27 13:33N 59°06' E 010°14'2 1.6
2016-Jun-27 12:33N 59°08' E 010°14'10 9.8
2016-Jun-27 11:33N 59°01' E 010°27'1514.6
2016-Jun-27 10:33N 59°01' E 010°55'9 9.0
2016-Jun-27 09:33N 58°56' E 011°10'6 5.6
2016-Jun-27 08:33N 58°59' E 011°01'1615.6
2016-Jun-27 07:34N 59°00' E 010°31'1111.3
2016-Jun-27 06:33N 59°07' E 010°14'1 0.8
2016-Jun-27 05:33N 59°07' E 010°14'0 0.5
2016-Jun-27 04:32N 59°06' E 010°14'0 0.0
2016-Jun-27 03:33N 59°06' E 010°14'0 0.0
2016-Jun-27 02:31N 59°06' E 010°14'0 0.0
2016-Jun-27 01:31N 59°06' E 010°14'0 0.0
2016-Jun-27 00:32N 59°06' E 010°14'0 0.0
2016-Jun-26 23:33N 59°06' E 010°14'0 0.0
2016-Jun-26 22:33N 59°06' E 010°14'0 0.0
2016-Jun-26 21:31N 59°06' E 010°14'0 0.0
2016-Jun-26 20:32N 59°06' E 010°14'1 1.5
2016-Jun-26 19:34N 59°08' E 010°14'7 6.6
2016-Jun-26 18:34N 59°01' E 010°19'1615.8
2016-Jun-26 17:34N 59°02' E 010°49'1212.1
2016-Jun-26 16:34N 58°56' E 011°10'3 3.2
2016-Jun-26 15:34N 58°57' E 011°04'1615.7
2016-Jun-26 14:34N 59°01' E 010°35'1212.4
2016-Jun-26 13:33N 59°07' E 010°14'1 0.6
2016-Jun-26 12:34N 59°08' E 010°14'10 9.5
2016-Jun-26 11:34N 59°01' E 010°27'1515.0
2016-Jun-26 10:34N 59°00' E 010°56'9 8.6
2016-Jun-26 09:34N 58°56' E 011°10'6 5.6
2016-Jun-26 08:34N 58°59' E 011°01'1515.4
2016-Jun-26 07:33N 59°00' E 010°31'1111.4
2016-Jun-26 06:34N 59°07' E 010°14'1 1.2
2016-Jun-26 05:34N 59°06' E 010°14'0 0.1
2016-Jun-26 04:32N 59°06' E 010°14'0 0.0
2016-Jun-26 03:33N 59°06' E 010°14'0 0.0
2016-Jun-26 02:33N 59°06' E 010°14'0 0.0
2016-Jun-26 01:31N 59°06' E 010°14'0 0.0
2016-Jun-26 00:32N 59°06' E 010°14'0 0.0
2016-Jun-25 23:32N 59°06' E 010°14'0 0.0
2016-Jun-25 22:33N 59°06' E 010°14'0 0.0
2016-Jun-25 21:31N 59°06' E 010°14'0 0.0
2016-Jun-25 20:31N 59°06' E 010°14'1 1.2
2016-Jun-25 19:33N 59°07' E 010°14'3 3.1
2016-Jun-25 18:33N 59°04' E 010°15'1414.3
2016-Jun-25 17:33N 59°01' E 010°42'1514.8
2016-Jun-25 16:33N 58°56' E 011°09'2 1.5
2016-Jun-25 15:34N 58°56' E 011°06'1615.5
2016-Jun-25 14:33N 59°01' E 010°37'1313.1
2016-Jun-25 13:33N 59°06' E 010°14'1 1.2
2016-Jun-25 12:33N 59°08' E 010°14'9 9.4
2016-Jun-25 11:34N 59°01' E 010°26'1514.8
2016-Jun-25 10:34N 59°00' E 010°55'9 9.1
2016-Jun-25 09:33N 58°56' E 011°10'7 6.7
2016-Jun-25 08:34N 58°59' E 010°59'1615.9
2016-Jun-25 07:34N 59°01' E 010°28'1010.3
2016-Jun-25 06:34N 59°08' E 010°14'0 0.5
2016-Jun-25 05:33N 59°07' E 010°14'1 0.9
2016-Jun-25 04:32N 59°06' E 010°14'0 0.0
2016-Jun-25 03:32N 59°06' E 010°14'0 0.0
2016-Jun-25 02:33N 59°06' E 010°14'0 0.0
2016-Jun-25 01:31N 59°06' E 010°14'0 0.0
2016-Jun-25 00:31N 59°06' E 010°14'0 0.0
2016-Jun-24 23:32N 59°06' E 010°14'0 0.0
2016-Jun-24 22:33N 59°06' E 010°14'0 0.0
2016-Jun-24 21:33N 59°06' E 010°14'0 0.0
2016-Jun-24 20:31N 59°06' E 010°14'1 0.5
2016-Jun-24 19:33N 59°07' E 010°14'2 1.8
2016-Jun-24 18:34N 59°05' E 010°15'1413.9
2016-Jun-24 17:34N 59°01' E 010°41'1515.2
2016-Jun-24 16:34N 58°56' E 011°08'1 1.0
2016-Jun-24 15:34N 58°56' E 011°06'1515.3
2016-Jun-24 14:34N 59°01' E 010°38'1313.0
2016-Jun-24 13:34N 59°06' E 010°14'2 2.0
2016-Jun-24 12:33N 59°08' E 010°14'9 9.1
2016-Jun-24 11:34N 59°01' E 010°26'1515.0
2016-Jun-24 10:34N 59°00' E 010°55'9 9.2
2016-Jun-24 09:34N 58°56' E 011°10'7 6.8
2016-Jun-24 08:34N 58°59' E 010°59'1615.9
2016-Jun-24 07:34N 59°01' E 010°28'9 3.0
2016-Jun-24 04:31N 59°06' E 010°14'0 0.0
2016-Jun-24 03:31N 59°06' E 010°14'0 0.0
2016-Jun-24 02:32N 59°06' E 010°14'0 0.0
2016-Jun-24 01:33N 59°06' E 010°14'0 0.0
2016-Jun-24 00:30N 59°06' E 010°14'0 0.0
2016-Jun-23 23:31N 59°06' E 010°14'0 0.0
2016-Jun-23 22:32N 59°06' E 010°14'0 0.0
2016-Jun-23 21:32N 59°06' E 010°14'0 0.0
2016-Jun-23 20:24N 59°06' E 010°14'1 0.8
2016-Jun-23 19:33N 59°07' E 010°14'2 2.2
2016-Jun-23 18:33N 59°05' E 010°15'1414.4
2016-Jun-23 17:34N 59°01' E 010°42'1515.1
2016-Jun-23 16:34N 58°56' E 011°09'3 3.1
2016-Jun-23 15:33N 58°57' E 011°04'1615.5
2016-Jun-23 14:34N 59°01' E 010°34'1212.4
2016-Jun-23 13:33N 59°07' E 010°14'0 0.5
2016-Jun-23 12:34N 59°08' E 010°14'1010.1
2016-Jun-23 11:34N 59°00' E 010°27'1515.3
2016-Jun-23 10:33N 59°00' E 010°57'8 8.0
2016-Jun-23 09:34N 58°56' E 011°10'5 5.3
2016-Jun-23 08:33N 58°59' E 011°01'1615.6
2016-Jun-23 07:34N 59°00' E 010°31'11 5.5
2016-Jun-23 05:33N 59°07' E 010°14'1 0.6
2016-Jun-23 04:32N 59°06' E 010°14'0 0.0
2016-Jun-23 03:32N 59°06' E 010°14'0 0.0
2016-Jun-23 02:33N 59°06' E 010°14'0 0.0
2016-Jun-23 01:31N 59°06' E 010°14'0 0.0
2016-Jun-23 00:31N 59°06' E 010°14'0 0.0
2016-Jun-22 23:32N 59°06' E 010°14'0 0.0
2016-Jun-22 22:33N 59°06' E 010°14'0 0.0
2016-Jun-22 21:33N 59°06' E 010°14'0 0.0
2016-Jun-22 20:31N 59°06' E 010°14'0 0.1
2016-Jun-22 19:34N 59°06' E 010°14'2 1.8
2016-Jun-22 18:33N 59°05' E 010°15'1414.3
2016-Jun-22 17:34N 59°02' E 010°42'1515.2
2016-Jun-22 16:33N 58°56' E 011°09'4 3.8
2016-Jun-22 15:34N 58°58' E 011°03'1515.0
2016-Jun-22 14:34N 58°60' E 010°34'1312.7
2016-Jun-22 13:34N 59°07' E 010°14'1 0.6
2016-Jun-22 12:34N 59°08' E 010°14'9 8.9
2016-Jun-22 11:34N 59°01' E 010°25'1615.5
2016-Jun-22 10:34N 59°00' E 010°55'9 8.9
2016-Jun-22 09:34N 58°56' E 011°10'4 4.4
2016-Jun-22 08:34N 58°58' E 011°02'1515.3
2016-Jun-22 07:34N 59°01' E 010°33'1212.0
2016-Jun-22 06:33N 59°07' E 010°14'0 0.5
2016-Jun-22 05:34N 59°07' E 010°14'1 0.5
2016-Jun-22 04:32N 59°06' E 010°14'0 0.0
2016-Jun-22 03:32N 59°06' E 010°14'0 0.0
2016-Jun-22 02:33N 59°06' E 010°14'0 0.0
2016-Jun-22 01:31N 59°06' E 010°14'0 0.0
2016-Jun-22 00:31N 59°06' E 010°14'0 0.0
2016-Jun-21 23:32N 59°06' E 010°14'0 0.0
2016-Jun-21 22:33N 59°06' E 010°14'0 0.0
2016-Jun-21 21:33N 59°06' E 010°14'0 0.0
2016-Jun-21 20:31N 59°06' E 010°14'0 0.2
2016-Jun-21 19:33N 59°06' E 010°14'2 1.7
2016-Jun-21 18:34N 59°05' E 010°15'1414.1
2016-Jun-21 17:33N 59°01' E 010°41'1514.6
2016-Jun-21 16:33N 58°56' E 011°08'1 0.9
2016-Jun-21 15:34N 58°56' E 011°06'1615.7
2016-Jun-21 14:34N 59°01' E 010°37'1312.8
2016-Jun-21 13:34N 59°06' E 010°14'2 1.5
2016-Jun-21 12:34N 59°08' E 010°14'9 9.0
2016-Jun-21 11:33N 59°01' E 010°25'1615.8
2016-Jun-21 10:34N 59°00' E 010°56'8 8.4
2016-Jun-21 09:34N 58°56' E 011°10'4 4.4
2016-Jun-21 08:34N 58°58' E 011°02'1515.2
2016-Jun-21 07:34N 59°01' E 010°34'12 6.1
2016-Jun-21 05:33N 59°07' E 010°14'1 1.1
2016-Jun-21 04:32N 59°06' E 010°14'0 0.0
2016-Jun-21 03:32N 59°06' E 010°14'0 0.0
2016-Jun-21 02:33N 59°06' E 010°14'0 0.0
2016-Jun-21 01:31N 59°06' E 010°14'0 0.0
2016-Jun-21 00:31N 59°06' E 010°14'0 0.0
2016-Jun-20 23:32N 59°06' E 010°14'0 0.0
2016-Jun-20 22:33N 59°06' E 010°14'0 0.0
2016-Jun-20 21:30N 59°06' E 010°14'0 0.0
2016-Jun-20 20:31N 59°06' E 010°14'0 0.1
2016-Jun-20 19:34N 59°06' E 010°14'2 1.7
2016-Jun-20 18:34N 59°05' E 010°15'1313.3
2016-Jun-20 17:34N 59°01' E 010°40'1514.9
2016-Jun-20 16:34N 58°56' E 011°07'1 1.2
2016-Jun-20 15:34N 58°56' E 011°05'1514.6
2016-Jun-20 14:34N 59°01' E 010°38'1312.9
2016-Jun-20 13:34N 59°06' E 010°14'2 2.0
2016-Jun-20 12:34N 59°08' E 010°14'9 8.6
2016-Jun-20 11:34N 59°01' E 010°24'1615.6
2016-Jun-20 10:34N 59°01' E 010°54'9 9.3
2016-Jun-20 09:34N 58°56' E 011°10'4 3.9
2016-Jun-20 08:34N 58°57' E 011°03'1515.4
2016-Jun-20 07:34N 59°01' E 010°34'1212.3
2016-Jun-20 06:33N 59°07' E 010°14'0 0.3
2016-Jun-20 05:33N 59°07' E 010°14'1 0.8
2016-Jun-20 04:31N 59°06' E 010°14'0 0.0
2016-Jun-20 03:31N 59°06' E 010°14'0 0.0
2016-Jun-20 02:32N 59°06' E 010°14'0 0.0
2016-Jun-20 01:24N 59°06' E 010°14'0 0.0
2016-Jun-20 00:30N 59°06' E 010°14'0 0.0
2016-Jun-19 23:28N 59°06' E 010°14'0 0.0
2016-Jun-19 22:32N 59°06' E 010°14'0 0.0
2016-Jun-19 21:32N 59°06' E 010°14'0 0.0
2016-Jun-19 20:33N 59°06' E 010°14'1 1.2
2016-Jun-19 19:33N 59°07' E 010°14'3 3.3
2016-Jun-19 18:33N 59°04' E 010°15'  
Track history (hours):
 
Tides and Currents Weather Stations Pressure Air Temp Water Temp Dewpoint Dewpoint Depression Visibility Wind Speed Wind Dir Waves Ship Positions

DucheSS Of Scandinavia

Operator: DFDS A/S

Last reported at 2016-Jun-29 17:34 UTC. Time now 2016-Jun-29 18:21 UTC.
Position N 59°02' E 010°43'.

Length 134 m; draft 5.2 m.

Type: Passenger vessel. MMSI: 219002929.

Date/timePositionNaut miles runAvg speedWind from/ knotsBaromVisibWave heightAir tempDewpointWater temp
2016-Jun-29 17:34N 59°02' E 010°43'1514.8
2016-Jun-29 16:33N 58°56' E 011°10'3 3.0
2016-Jun-29 15:33N 58°56' E 011°04'1514.8
2016-Jun-29 14:33N 59°01' E 010°37'1312.9
2016-Jun-29 13:34N 59°06' E 010°14'2 1.7
2016-Jun-29 12:34N 59°08' E 010°14'9 9.2
2016-Jun-29 11:33N 59°01' E 010°25'1514.8
2016-Jun-29 10:34N 59°01' E 010°54'9 9.5
2016-Jun-29 09:34N 58°56' E 011°10'4 4.0
2016-Jun-29 08:34N 58°58' E 011°03'1515.1
2016-Jun-29 07:34N 59°01' E 010°34'1212.2
2016-Jun-29 06:32N 59°07' E 010°14'0 0.4
2016-Jun-29 05:33N 59°08' E 010°14'1 1.4
2016-Jun-29 04:31N 59°06' E 010°14'0 0.0
2016-Jun-29 03:32N 59°06' E 010°14'0 0.0
2016-Jun-29 02:33N 59°06' E 010°14'0 0.0
2016-Jun-29 01:33N 59°06' E 010°14'0 0.0
2016-Jun-29 00:28N 59°06' E 010°14'0 0.0
2016-Jun-28 23:23N 59°06' E 010°14'0 0.0
2016-Jun-28 22:32N 59°06' E 010°14'0 0.0
2016-Jun-28 21:30N 59°06' E 010°14'0 0.0
2016-Jun-28 20:31N 59°06' E 010°14'1 0.7
2016-Jun-28 19:33N 59°07' E 010°14'3 2.8
2016-Jun-28 18:34N 59°04' E 010°15'1414.0
2016-Jun-28 17:34N 59°01' E 010°42'1515.0
2016-Jun-28 16:34N 58°56' E 011°09'2 1.8
2016-Jun-28 15:33N 58°56' E 011°05'1515.4
2016-Jun-28 14:34N 59°01' E 010°37'1313.0
2016-Jun-28 13:33N 59°06' E 010°14'1 1.2
2016-Jun-28 12:33N 59°08' E 010°14'9 9.3
2016-Jun-28 11:34N 59°01' E 010°26'1514.8
2016-Jun-28 10:34N 59°01' E 010°54'9 9.3
2016-Jun-28 09:34N 58°56' E 011°10'6 5.8
2016-Jun-28 08:34N 58°59' E 011°01'1615.9
2016-Jun-28 07:34N 59°00' E 010°30'10 3.4
2016-Jun-28 04:33N 59°06' E 010°14'0 0.0
2016-Jun-28 03:28N 59°06' E 010°14'0 0.0
2016-Jun-28 02:31N 59°06' E 010°14'0 0.0
2016-Jun-28 01:32N 59°06' E 010°14'0 0.0
2016-Jun-28 00:33N 59°06' E 010°14'0 0.0
2016-Jun-27 23:33N 59°06' E 010°14'0 0.0
2016-Jun-27 22:31N 59°06' E 010°14'0 0.0
2016-Jun-27 21:32N 59°06' E 010°14'0 0.0
2016-Jun-27 20:32N 59°06' E 010°14'0 0.0
2016-Jun-27 19:34N 59°06' E 010°14'1 0.7
2016-Jun-27 18:34N 59°05' E 010°14'1313.1
2016-Jun-27 17:34N 59°01' E 010°38'1615.7
2016-Jun-27 16:34N 58°56' E 011°07'1 1.2
2016-Jun-27 15:34N 58°56' E 011°05'1514.5
2016-Jun-27 14:33N 59°01' E 010°38'1313.3
2016-Jun-27 13:33N 59°06' E 010°14'2 1.6
2016-Jun-27 12:33N 59°08' E 010°14'10 9.8
2016-Jun-27 11:33N 59°01' E 010°27'1514.6
2016-Jun-27 10:33N 59°01' E 010°55'9 9.0
2016-Jun-27 09:33N 58°56' E 011°10'6 5.6
2016-Jun-27 08:33N 58°59' E 011°01'1615.6
2016-Jun-27 07:34N 59°00' E 010°31'1111.3
2016-Jun-27 06:33N 59°07' E 010°14'1 0.8
2016-Jun-27 05:33N 59°07' E 010°14'0 0.5
2016-Jun-27 04:32N 59°06' E 010°14'0 0.0
2016-Jun-27 03:33N 59°06' E 010°14'0 0.0
2016-Jun-27 02:31N 59°06' E 010°14'0 0.0
2016-Jun-27 01:31N 59°06' E 010°14'0 0.0
2016-Jun-27 00:32N 59°06' E 010°14'0 0.0
2016-Jun-26 23:33N 59°06' E 010°14'0 0.0
2016-Jun-26 22:33N 59°06' E 010°14'0 0.0
2016-Jun-26 21:31N 59°06' E 010°14'0 0.0
2016-Jun-26 20:32N 59°06' E 010°14'1 1.5
2016-Jun-26 19:34N 59°08' E 010°14'7 6.6
2016-Jun-26 18:34N 59°01' E 010°19'1615.8
2016-Jun-26 17:34N 59°02' E 010°49'1212.1
2016-Jun-26 16:34N 58°56' E 011°10'3 3.2
2016-Jun-26 15:34N 58°57' E 011°04'1615.7
2016-Jun-26 14:34N 59°01' E 010°35'1212.4
2016-Jun-26 13:33N 59°07' E 010°14'1 0.6
2016-Jun-26 12:34N 59°08' E 010°14'10 9.5
2016-Jun-26 11:34N 59°01' E 010°27'1515.0
2016-Jun-26 10:34N 59°00' E 010°56'9 8.6
2016-Jun-26 09:34N 58°56' E 011°10'6 5.6
2016-Jun-26 08:34N 58°59' E 011°01'1515.4
2016-Jun-26 07:33N 59°00' E 010°31'1111.4
2016-Jun-26 06:34N 59°07' E 010°14'1 1.2
2016-Jun-26 05:34N 59°06' E 010°14'0 0.1
2016-Jun-26 04:32N 59°06' E 010°14'0 0.0
2016-Jun-26 03:33N 59°06' E 010°14'0 0.0
2016-Jun-26 02:33N 59°06' E 010°14'0 0.0
2016-Jun-26 01:31N 59°06' E 010°14'0 0.0
2016-Jun-26 00:32N 59°06' E 010°14'0 0.0
2016-Jun-25 23:32N 59°06' E 010°14'0 0.0
2016-Jun-25 22:33N 59°06' E 010°14'0 0.0
2016-Jun-25 21:31N 59°06' E 010°14'0 0.0
2016-Jun-25 20:31N 59°06' E 010°14'1 1.2
2016-Jun-25 19:33N 59°07' E 010°14'3 3.1
2016-Jun-25 18:33N 59°04' E 010°15'1414.3
2016-Jun-25 17:33N 59°01' E 010°42'1514.8
2016-Jun-25 16:33N 58°56' E 011°09'2 1.5
2016-Jun-25 15:34N 58°56' E 011°06'1615.5
2016-Jun-25 14:33N 59°01' E 010°37'1313.1
2016-Jun-25 13:33N 59°06' E 010°14'1 1.2
2016-Jun-25 12:33N 59°08' E 010°14'9 9.4
2016-Jun-25 11:34N 59°01' E 010°26'1514.8
2016-Jun-25 10:34N 59°00' E 010°55'9 9.1
2016-Jun-25 09:33N 58°56' E 011°10'7 6.7
2016-Jun-25 08:34N 58°59' E 010°59'1615.9
2016-Jun-25 07:34N 59°01' E 010°28'1010.3
2016-Jun-25 06:34N 59°08' E 010°14'0 0.5
2016-Jun-25 05:33N 59°07' E 010°14'1 0.9
2016-Jun-25 04:32N 59°06' E 010°14'0 0.0
2016-Jun-25 03:32N 59°06' E 010°14'0 0.0
2016-Jun-25 02:33N 59°06' E 010°14'0 0.0
2016-Jun-25 01:31N 59°06' E 010°14'0 0.0
2016-Jun-25 00:31N 59°06' E 010°14'0 0.0
2016-Jun-24 23:32N 59°06' E 010°14'0 0.0
2016-Jun-24 22:33N 59°06' E 010°14'0 0.0
2016-Jun-24 21:33N 59°06' E 010°14'0 0.0
2016-Jun-24 20:31N 59°06' E 010°14'1 0.5
2016-Jun-24 19:33N 59°07' E 010°14'2 1.8
2016-Jun-24 18:34N 59°05' E 010°15'1413.9
2016-Jun-24 17:34N 59°01' E 010°41'1515.2
2016-Jun-24 16:34N 58°56' E 011°08'1 1.0
2016-Jun-24 15:34N 58°56' E 011°06'1515.3
2016-Jun-24 14:34N 59°01' E 010°38'1313.0
2016-Jun-24 13:34N 59°06' E 010°14'2 2.0
2016-Jun-24 12:33N 59°08' E 010°14'9 9.1
2016-Jun-24 11:34N 59°01' E 010°26'1515.0
2016-Jun-24 10:34N 59°00' E 010°55'9 9.2
2016-Jun-24 09:34N 58°56' E 011°10'7 6.8
2016-Jun-24 08:34N 58°59' E 010°59'1615.9
2016-Jun-24 07:34N 59°01' E 010°28'9 3.0
2016-Jun-24 04:31N 59°06' E 010°14'0 0.0
2016-Jun-24 03:31N 59°06' E 010°14'0 0.0
2016-Jun-24 02:32N 59°06' E 010°14'0 0.0
2016-Jun-24 01:33N 59°06' E 010°14'0 0.0
2016-Jun-24 00:30N 59°06' E 010°14'0 0.0
2016-Jun-23 23:31N 59°06' E 010°14'0 0.0
2016-Jun-23 22:32N 59°06' E 010°14'0 0.0
2016-Jun-23 21:32N 59°06' E 010°14'0 0.0
2016-Jun-23 20:24N 59°06' E 010°14'1 0.8
2016-Jun-23 19:33N 59°07' E 010°14'2 2.2
2016-Jun-23 18:33N 59°05' E 010°15'1414.4
2016-Jun-23 17:34N 59°01' E 010°42'1515.1
2016-Jun-23 16:34N 58°56' E 011°09'3 3.1
2016-Jun-23 15:33N 58°57' E 011°04'1615.5
2016-Jun-23 14:34N 59°01' E 010°34'1212.4
2016-Jun-23 13:33N 59°07' E 010°14'0 0.5
2016-Jun-23 12:34N 59°08' E 010°14'1010.1
2016-Jun-23 11:34N 59°00' E 010°27'1515.3
2016-Jun-23 10:33N 59°00' E 010°57'8 8.0
2016-Jun-23 09:34N 58°56' E 011°10'5 5.3
2016-Jun-23 08:33N 58°59' E 011°01'1615.6
2016-Jun-23 07:34N 59°00' E 010°31'11 5.5
2016-Jun-23 05:33N 59°07' E 010°14'1 0.6
2016-Jun-23 04:32N 59°06' E 010°14'0 0.0
2016-Jun-23 03:32N 59°06' E 010°14'0 0.0
2016-Jun-23 02:33N 59°06' E 010°14'0 0.0
2016-Jun-23 01:31N 59°06' E 010°14'0 0.0
2016-Jun-23 00:31N 59°06' E 010°14'0 0.0
2016-Jun-22 23:32N 59°06' E 010°14'0 0.0
2016-Jun-22 22:33N 59°06' E 010°14'0 0.0
2016-Jun-22 21:33N 59°06' E 010°14'0 0.0
2016-Jun-22 20:31N 59°06' E 010°14'0 0.1
2016-Jun-22 19:34N 59°06' E 010°14'2 1.8
2016-Jun-22 18:33N 59°05' E 010°15'1414.3
2016-Jun-22 17:34N 59°02' E 010°42'1515.2
2016-Jun-22 16:33N 58°56' E 011°09'4 3.8
2016-Jun-22 15:34N 58°58' E 011°03'1515.0
2016-Jun-22 14:34N 58°60' E 010°34'1312.7
2016-Jun-22 13:34N 59°07' E 010°14'1 0.6
2016-Jun-22 12:34N 59°08' E 010°14'9 8.9
2016-Jun-22 11:34N 59°01' E 010°25'1615.5
2016-Jun-22 10:34N 59°00' E 010°55'9 8.9
2016-Jun-22 09:34N 58°56' E 011°10'4 4.4
2016-Jun-22 08:34N 58°58' E 011°02'1515.3
2016-Jun-22 07:34N 59°01' E 010°33'1212.0
2016-Jun-22 06:33N 59°07' E 010°14'0 0.5
2016-Jun-22 05:34N 59°07' E 010°14'1 0.5
2016-Jun-22 04:32N 59°06' E 010°14'0 0.0
2016-Jun-22 03:32N 59°06' E 010°14'0 0.0
2016-Jun-22 02:33N 59°06' E 010°14'0 0.0
2016-Jun-22 01:31N 59°06' E 010°14'0 0.0
2016-Jun-22 00:31N 59°06' E 010°14'0 0.0
2016-Jun-21 23:32N 59°06' E 010°14'0 0.0
2016-Jun-21 22:33N 59°06' E 010°14'0 0.0
2016-Jun-21 21:33N 59°06' E 010°14'0 0.0
2016-Jun-21 20:31N 59°06' E 010°14'0 0.2
2016-Jun-21 19:33N 59°06' E 010°14'2 1.7
2016-Jun-21 18:34N 59°05' E 010°15'1414.1
2016-Jun-21 17:33N 59°01' E 010°41'1514.6
2016-Jun-21 16:33N 58°56' E 011°08'1 0.9
2016-Jun-21 15:34N 58°56' E 011°06'1615.7
2016-Jun-21 14:34N 59°01' E 010°37'1312.8
2016-Jun-21 13:34N 59°06' E 010°14'2 1.5
2016-Jun-21 12:34N 59°08' E 010°14'9 9.0
2016-Jun-21 11:33N 59°01' E 010°25'1615.8
2016-Jun-21 10:34N 59°00' E 010°56'8 8.4
2016-Jun-21 09:34N 58°56' E 011°10'4 4.4
2016-Jun-21 08:34N 58°58' E 011°02'1515.2
2016-Jun-21 07:34N 59°01' E 010°34'12 6.1
2016-Jun-21 05:33N 59°07' E 010°14'1 1.1
2016-Jun-21 04:32N 59°06' E 010°14'0 0.0
2016-Jun-21 03:32N 59°06' E 010°14'0 0.0
2016-Jun-21 02:33N 59°06' E 010°14'0 0.0
2016-Jun-21 01:31N 59°06' E 010°14'0 0.0
2016-Jun-21 00:31N 59°06' E 010°14'0 0.0
2016-Jun-20 23:32N 59°06' E 010°14'0 0.0
2016-Jun-20 22:33N 59°06' E 010°14'0 0.0
2016-Jun-20 21:30N 59°06' E 010°14'0 0.0
2016-Jun-20 20:31N 59°06' E 010°14'0 0.1
2016-Jun-20 19:34N 59°06' E 010°14'2 1.7
2016-Jun-20 18:34N 59°05' E 010°15'1313.3
2016-Jun-20 17:34N 59°01' E 010°40'1514.9
2016-Jun-20 16:34N 58°56' E 011°07'1 1.2
2016-Jun-20 15:34N 58°56' E 011°05'1514.6
2016-Jun-20 14:34N 59°01' E 010°38'1312.9
2016-Jun-20 13:34N 59°06' E 010°14'2 2.0
2016-Jun-20 12:34N 59°08' E 010°14'9 8.6
2016-Jun-20 11:34N 59°01' E 010°24'1615.6
2016-Jun-20 10:34N 59°01' E 010°54'9 9.3
2016-Jun-20 09:34N 58°56' E 011°10'4 3.9
2016-Jun-20 08:34N 58°57' E 011°03'1515.4
2016-Jun-20 07:34N 59°01' E 010°34'1212.3
2016-Jun-20 06:33N 59°07' E 010°14'0 0.3
2016-Jun-20 05:33N 59°07' E 010°14'1 0.8
2016-Jun-20 04:31N 59°06' E 010°14'0 0.0
2016-Jun-20 03:31N 59°06' E 010°14'0 0.0
2016-Jun-20 02:32N 59°06' E 010°14'0 0.0
2016-Jun-20 01:24N 59°06' E 010°14'0 0.0
2016-Jun-20 00:30N 59°06' E 010°14'0 0.0
2016-Jun-19 23:28N 59°06' E 010°14'0 0.0
2016-Jun-19 22:32N 59°06' E 010°14'0 0.0
2016-Jun-19 21:32N 59°06' E 010°14'0 0.0
2016-Jun-19 20:33N 59°06' E 010°14'1 1.2
2016-Jun-19 19:33N 59°07' E 010°14'3 3.3
2016-Jun-19 18:33N 59°04' E 010°15'  

Dump ship's entire track history